Portada
METAR-TAF:

METAR-TAF

Aeropuertos :

Aeropuerto de Badajoz

Badajoz, España

latitud: 38-53N, longitud: 006-49W, altitud: 185 m

Observación

El informe se hizo hace 34 minutos, a las 14:30 UTC
Viento 15 kt del oeste, variando entre suroeste y oeste-noroeste
Temperatura 20°C
Humedad 83%
Presión 1018 hPa
Visibilidad: 4000 m
Cielo nuboso a una altura de 4100 ft
Cielo nuboso a una altura de 4800 ft
lluvia ligera

METAR: LEBZ 251430Z 26015KT 230V300 9000 4000 -RA BKN041 BKN048 20/17 Q1018

Hora: 17:04 (15:04 UTC)

Pronóstico

El informe se hizo hace 1 hora y 4 minutos, a las 14:00 UTC
Pronóstico válido del 25 a las 15 UTC al 26 a las 15 UTC
Viento 9 kt del oeste-suroeste
Visibilidad 10 km o más
Nubes dispersas a una altura de 4000 ft

TAF: LEBZ 251400Z 2515/2615 25009KT 9999 SCT040 TX27/2614Z TN14/2606Z

Observaciones y pronósticos meteorológicos de más de 4000 aeropuertos (mensajes METAR y TAF).

Los puntos amarillos y rojos representan las estaciones disponibles.

Ponga el ratón en el punto deseado para ver el nombre de la estación.

Haga clic para ver las observaciones y los pronósticos meteorológicos.

Para cambiar el mapa : haga clic en los botones verdes con una cruz de color negro para hacer un zoom, en el botón verde con un guión para alejar o en las flechas verdes para mapas adyacentes.


METAR-TAF: